Alger, Michigan
Current Conditions -  °F | °C
As of 12:14 PM on Sunday 21 Dec 2014 (Local Time) from KHTL Reporting Station
Haze Haze  
Wind Chill: 23°   Ceiling: 400
Heat Index: 28°   Visibility: 1.5mi
Dew Point: 26°   Wind: 5mph
Humidity: 92%   Direction: 150°SSE
Pressure: 30.19"   Gusts: NA
Location:  44.13°N, 84.12°W
Report Text: KHTL 211714Z AUTO 15004KT 1 1/2SM BR OVC004 M02/M03 A3019 RMK AO2 T10221033
Loading
Personal Weather Stations






























Interactive Weather Map New forecast layout! Learn more

10-Day Weather Forecast

Advertisements
Track Severe Weather on mobile